IK8SQI Weather Reports


Display with metric or nautical units.
time (UTC)temp
F
wind
direction
speed
MPH
gust
MPH
rain 1hr
in
rain 24hr
in
rain mn
in
humidity
%
barometer
mb
20200226191702 72 39 0.0 8.0 0.02 0.02 0.02 85 1009.1
20200226190058 76 175 1.0 3.0 0.02 0.02 0.02 87 1009.0
20200226184658 77 49 0.0 1.0 0.02 0.02 0.02 86 1009.0
20200226183129 77 281 0.0 2.0 0.02 0.02 0.02 82 1009.7
20200226181604 78 276 0.0 1.0 0.00 0.00 0.00 78 1010.0
20200226180102 78 224 0.0 1.0 0.00 0.00 0.00 78 1010.2
20200226174621 78 127 0.0 4.0 0.00 0.00 0.00 79 1010.6
20200226173055 78 259 1.0 7.0 0.00 0.00 0.00 78 1011.0
20200226171616 78 179 1.0 7.0 0.00 0.00 0.00 77 1010.8
20200226170127 78 181 4.0 9.0 0.00 0.00 0.00 77 1010.9
20200226164618 78 214 3.0 9.0 0.00 0.00 0.00 76 1011.0
20200226163146 78 165 2.0 9.0 0.00 0.00 0.00 75 1011.1
20200226161633 77 167 3.0 10.0 0.00 0.00 0.00 75 1011.3
20200226160111 78 115 3.0 11.0 0.00 0.00 0.00 73 1011.2
20200226154638 78 121 1.0 6.0 0.00 0.00 0.00 72 1011.2
20200226153118 78 117 4.0 12.0 0.00 0.00 0.00 71 1011.0
20200226151617 76 152 3.0 11.0 0.00 0.00 0.00 74 1010.8
20200226150044 76 140 3.0 12.0 0.00 0.00 0.00 74 1011.0
20200226144546 75 115 2.0 8.0 0.00 0.00 0.00 74 1010.8
20200226143105 74 173 3.0 11.0 0.00 0.00 0.00 74 1010.8
20200226141626 74 128 4.0 11.0 0.00 0.00 0.00 72 1010.8
20200226140107 73 160 2.0 10.0 0.00 0.00 0.00 73 1010.4
20200226134529 72 167 3.0 7.0 0.00 0.00 0.00 75 1010.3
20200226133030 71 220 2.0 6.0 0.00 0.00 0.00 75 1010.3
20200226131549 70 117 3.0 8.0 0.00 0.00 0.00 76 1010.4
20200226130009 69 174 4.0 9.0 0.00 0.00 0.00 77 1010.2
20200226124512 69 127 3.0 6.0 0.00 0.00 0.00 77 1010.4
20200226123013 68 127 2.0 6.0 0.00 0.00 0.00 77 1010.4
20200226121504 68 110 2.0 5.0 0.00 0.00 0.00 77 1010.2
20200226120015 68 115 2.0 6.0 0.00 0.00 0.00 78 1010.2
20200226114501 67 120 3.0 7.0 0.00 0.00 0.00 80 1010.4
20200226113140 67 161 2.0 5.0 0.00 0.00 0.00 81 1010.2
20200226111653 66 98 2.0 4.0 0.00 0.00 0.00 82 1010.5
20200226110140 66 219 0.0 2.0 0.00 0.00 0.00 84 1010.6
20200226104814 66 123 2.0 7.0 0.00 0.00 0.00 84 1010.4
20200226103251 65 121 4.0 6.0 0.00 0.00 0.00 88 1010.3
20200226101707 64 115 0.0 2.0 0.00 0.00 0.00 89 1010.7
20200226100220 64 92 0.0 0.0 0.00 0.00 0.00 89 1010.8
20200226094958 64 80 0.0 1.0 0.00 0.00 0.00 88 1010.8
20200226093138 64 115 1.0 2.0 0.00 0.00 0.00 88 1010.8
20200226091609 64 260 0.0 1.0 0.00 0.00 0.00 87 1010.8
20200226090119 65 114 0.0 1.0 0.00 0.00 0.00 85 1010.8
20200226084652 66 162 0.0 0.0 0.00 0.00 0.00 84 1010.8
20200226083056 67 162 0.0 0.0 0.00 0.00 0.00 82 1010.7
20200226081708 67 165 0.0 0.0 0.00 0.00 0.00 81 1010.9
20200226080118 67 127 0.0 5.0 0.00 0.00 0.00 80 1010.8
20200226074556 67 153 0.0 4.0 0.00 0.00 0.00 80 1010.9
20200226073219 68 124 1.0 7.0 0.00 0.00 0.00 80 1010.9
20200226071621 67 110 3.0 6.0 0.00 0.00 0.00 81 1010.8
20200226070049 67 86 3.0 6.0 0.00 0.00 0.00 82 1011.1
20200226064546 67 142 0.0 3.0 0.00 0.00 0.00 81 1011.5
20200226063107 67 126 0.0 4.0 0.00 0.00 0.00 82 1011.8
20200226061554 66 165 0.0 5.0 0.00 0.00 0.00 83 1012.3
20200226060115 66 224 0.0 3.0 0.00 0.00 0.00 85 1012.8
20200226054657 66 295 0.0 1.0 0.00 0.00 0.00 85 1012.6
20200226053133 66 268 0.0 3.0 0.00 0.00 0.00 86 1012.7
20200226051558 66 278 0.0 4.0 0.00 0.00 0.00 86 1012.6
20200226050047 66 248 0.0 4.0 0.00 0.00 0.00 88 1012.9
20200226044524 66 276 0.0 2.0 0.00 0.00 0.00 88 1012.8
20200226043101 66 132 0.0 1.0 0.00 0.00 0.00 87 1012.4
20200226041628 66 198 0.0 0.0 0.00 0.00 0.00 87 1012.5
20200226040022 66 204 0.0 2.0 0.00 0.00 0.00 86 1012.4
20200226034556 66 147 0.0 2.0 0.00 0.00 0.00 85 1012.4
20200226033037 66 124 0.0 0.0 0.00 0.00 0.00 84 1012.5
20200226031523 66 152 0.0 4.0 0.00 0.00 0.00 85 1012.7
20200226030034 67 327 0.0 3.0 0.00 0.00 0.00 84 1012.9
20200226024524 67 120 0.0 2.0 0.00 0.00 0.00 84 1012.9
20200226023039 67 259 0.0 5.0 0.00 0.00 0.00 83 1012.9
20200226021516 67 234 0.0 4.0 0.00 0.00 0.00 82 1012.7
20200226020035 67 274 0.0 5.0 0.00 0.00 0.00 82 1012.7
20200226014513 68 282 1.0 7.0 0.00 0.00 0.00 82 1012.6
20200226013035 68 152 0.0 6.0 0.00 0.00 0.00 83 1012.6
20200226011514 69 276 0.0 8.0 0.00 0.00 0.00 82 1012.4
20200226010036 69 236 4.0 13.0 0.00 0.00 0.00 81 1012.3
20200226004509 70 257 4.0 14.0 0.00 0.00 0.00 80 1012.0
20200226003026 71 259 3.0 11.0 0.00 0.00 0.00 80 1011.7
20200226001542 72 322 2.0 11.0 0.00 0.00 0.00 80 1011.3
20200226000123 74 297 3.0 10.0 0.00 0.00 0.00 77 1011.2
20200225234524 77 281 2.0 9.0 0.00 0.00 0.00 68 1010.9
20200225233010 78 305 3.0 12.0 0.00 0.00 0.00 66 1010.4
20200225231537 78 297 0.0 2.0 0.00 0.00 0.00 67 1009.9
20200225230016 79 207 0.0 1.0 0.00 0.00 0.00 64 1009.5
20200225224504 80 233 0.0 4.0 0.00 0.00 0.00 63 1009.3
20200225223003 81 138 0.0 1.0 0.00 0.00 0.00 65 1009.3
20200225221503 81 133 0.0 0.0 0.00 0.00 0.00 63 1009.1
20200225220004 81 231 0.0 3.0 0.00 0.00 0.00 63 1009.1
20200225213216 82 184 0.0 4.0 0.00 0.00 0.00 63 1009.0
20200225211621 82 220 0.0 7.0 0.00 0.00 0.00 61 1008.7
20200225210149 83 321 0.0 6.0 0.00 0.00 0.00 62 1008.6
20200225204653 83 135 0.0 6.0 0.00 0.00 0.00 60 1008.5
20200225203112 83 203 0.0 5.0 0.00 0.00 0.00 61 1008.5
20200225201637 83 161 0.0 4.0 0.00 0.00 0.00 62 1008.6
20200225200123 83 251 0.0 7.0 0.00 0.00 0.00 63 1008.8
20200225194655 82 106 1.0 6.0 0.00 0.00 0.00 64 1008.7
20200225193102 81 139 0.0 6.0 0.00 0.00 0.00 65 1008.9